Flight Track Log - Related Links

Times and Time Zones

All times are in EST time to prevent confusion due to time zone crossing. See the PDT4226 flight status page for this flight to view local times or setup timezone preferences in your user account.

Time Position Orientation Groundspeed Altitude Reporting Facility
EST Latitude Longitude Course Direction KTS MPH feet Rate Location/Type
Wed 11:54:04 AM 39.9000 -75.2333 311° West 109 125 600  Level Philadelphia TRACON
Wed 11:54:58 AM 39.9000 -75.2667 270° West 135 155 1,900 1,368 Climbing Philadelphia TRACON
Wed 11:55:58 AM 39.9167 -75.3167 294° West 143 165 3,200 1,150 Climbing Philadelphia TRACON
Wed 11:56:00 AM 40.0477 -75.3978 323° Northwest  Level FlightAware Approximate
Wed 11:56:58 AM 39.9333 -75.3667 294° West 141 162 4,200  Level Philadelphia TRACON
Wed 11:57:00 AM 40.1085 -75.4503 303° West  Level FlightAware Approximate
Wed 11:57:31 AM 39.9392 -75.4006 283° West 149 171 4,800  Level New York Center
Wed 11:58:00 AM 40.1676 -75.5014 311° West  Level FlightAware Approximate
Wed 11:58:31 AM 39.9539 -75.4531 290° West 149 171 5,900  Level New York Center
Wed 11:59:00 AM 40.2227 -75.5590 311° West  Level FlightAware Approximate
Wed 11:59:31 AM 39.9753 -75.4897 307° West 155 178 7,600  Level New York Center
Wed 12:00:31 PM 40.0189 -75.4981 352° North 141 162 8,400 700 Climbing New York Center
Wed 12:01:31 PM 40.0639 -75.5172 342° North 168 193 9,000 650 Climbing New York Center
Wed 12:02:31 PM 40.1111 -75.5342 345° North 173 199 9,700 700 Climbing New York Center
Wed 12:03:31 PM 40.1672 -75.5406 355° North 183 211 10,400 650 Climbing New York Center
Wed 12:04:31 PM 40.2208 -75.5525 350° North 183 211 11,000 650 Climbing New York Center
Wed 12:05:31 PM 40.2592 -75.5850 327° Northwest 171 197 11,700 500 Climbing New York Center
Wed 12:06:31 PM 40.3111 -75.5914 355° North 186 214 12,000 150 Climbing New York Center
Wed 12:07:31 PM 40.3686 -75.6064 349° North 209 241 12,000  Level New York Center
Wed 12:08:31 PM 40.4347 -75.6219 350° North 219 252 12,000  Level New York Center
Wed 12:09:31 PM 40.4967 -75.6372 349° North 219 252 12,000  Level New York Center
Wed 12:10:31 PM 40.5567 -75.6469 353° North 219 252 12,000  Level New York Center
Wed 12:11:31 PM 40.6128 -75.6536 355° North 219 252 12,000  Level New York Center
Wed 12:12:31 PM 40.6725 -75.6661 351° North 219 252 12,000  Level New York Center
Wed 12:13:31 PM 40.7389 -75.6792 352° North 219 252 12,000  Level New York Center
Wed 12:14:31 PM 40.8028 -75.6919 351° North 219 252 12,000  Level New York Center
Wed 12:15:31 PM 40.8647 -75.7044 351° North 219 252 12,000  Level New York Center
Wed 12:16:31 PM 40.9186 -75.7167 350° North 219 252 12,000  Level New York Center
Wed 12:17:31 PM 40.9786 -75.7267 353° North 219 252 12,000  Level New York Center
Wed 12:18:31 PM 41.0467 -75.7425 350° North 224 258 12,000 -250 Level New York Center
Wed 12:19:31 PM 41.1064 -75.7581 349° North 219 252 11,500 -650 Descending New York Center
Wed 12:20:31 PM 41.1722 -75.7739 350° North 230 265 10,700 -750 Descending New York Center
Wed 12:21:31 PM 41.2344 -75.7839 353° North 240 276 10,000 -350 Descending New York Center
Wed 12:22:31 PM 41.3022 -75.8028 348° North 235 270 10,000 50 Level New York Center
Wed 12:23:31 PM 41.3642 -75.8158 351° North 229 264 10,100 100 Climbing New York Center
Wed 12:24:31 PM 41.4286 -75.8233 355° North 229 264 10,200 -400 Climbing New York Center
Wed 12:25:31 PM 41.4925 -75.8364 351° North 229 264 9,300 -900 Descending New York Center
Wed 12:26:31 PM 41.5606 -75.8528 350° North 239 275 8,400 -600 Descending New York Center
Wed 12:27:31 PM 41.6183 -75.8628 353° North 239 275 8,100 -100 Descending New York Center
Wed 12:28:31 PM 41.6844 -75.8761 351° North 229 264 8,200  Climbing New York Center
Wed 12:29:31 PM 41.7442 -75.8917 349° North 222 255 8,100 -550 Descending New York Center
Wed 12:30:31 PM 41.8061 -75.9019 353° North 222 255 7,100 -1,050 Descending New York Center
Wed 12:31:31 PM 41.8639 -75.9147 351° North 232 267 6,000 -1,000 Descending New York Center
Wed 12:32:31 PM 41.9258 -75.9281 351° North 237 273 5,100 -550 Descending New York Center
Wed 12:33:31 PM 41.9878 -75.9411 351° North 211 243 4,900 -100 Descending New York Center
Wed 12:34:31 PM 42.0378 -75.9422 359° North 196 226 4,900 -100 Level New York Center
Wed 12:35:31 PM 42.0775 -75.9369 North 181 208 4,700 -650 Descending New York Center
Wed 12:36:31 PM 42.1278 -75.9297 North 167 192 3,600 -1,000 Descending New York Center
Wed 12:37:31 PM 42.1647 -75.9439 344° North 145 167 2,700 -700 Descending New York Center
Wed 12:38:31 PM 42.1953 -75.9547 345° North 130 150 2,200 -500 Descending New York Center

Login

Don't have an account? Register now (free) for customized features, flight alerts, and more!